sensor_id;sensor_type;location;lat;lon;timestamp;temperature;humidity
4435;DHT22;46552;52.150;8.428;2024-01-27T00:00:32;5.50;99.90
4435;DHT22;46552;52.150;8.428;2024-01-27T00:02:59;5.50;99.90
4435;DHT22;46552;52.150;8.428;2024-01-27T00:05:26;5.40;99.90
4435;DHT22;46552;52.150;8.428;2024-01-27T00:07:55;5.40;99.90
4435;DHT22;46552;52.150;8.428;2024-01-27T00:10:22;5.30;99.90
4435;DHT22;46552;52.150;8.428;2024-01-27T00:12:49;5.30;99.90
4435;DHT22;46552;52.150;8.428;2024-01-27T00:15:18;5.30;99.90
4435;DHT22;46552;52.150;8.428;2024-01-27T00:17:45;5.30;99.90
4435;DHT22;46552;52.150;8.428;2024-01-27T00:20:12;5.30;99.90
4435;DHT22;46552;52.150;8.428;2024-01-27T00:22:40;5.30;99.90
4435;DHT22;46552;52.150;8.428;2024-01-27T00:25:08;5.30;99.90
4435;DHT22;46552;52.150;8.428;2024-01-27T00:27:36;5.30;99.90
4435;DHT22;46552;52.150;8.428;2024-01-27T00:30:04;5.20;99.90
4435;DHT22;46552;52.150;8.428;2024-01-27T00:32:31;5.20;99.90
4435;DHT22;46552;52.150;8.428;2024-01-27T00:34:59;5.20;99.90
4435;DHT22;46552;52.150;8.428;2024-01-27T00:37:26;5.20;99.90
4435;DHT22;46552;52.150;8.428;2024-01-27T00:39:53;5.20;99.90
4435;DHT22;46552;52.150;8.428;2024-01-27T00:42:22;5.20;99.90
4435;DHT22;46552;52.150;8.428;2024-01-27T00:44:49;5.10;99.90
4435;DHT22;46552;52.150;8.428;2024-01-27T00:47:17;5.10;99.90
4435;DHT22;46552;52.150;8.428;2024-01-27T00:49:44;5.10;99.90
4435;DHT22;46552;52.150;8.428;2024-01-27T00:52:11;5.10;99.90
4435;DHT22;46552;52.150;8.428;2024-01-27T00:54:38;5.10;99.90
4435;DHT22;46552;52.150;8.428;2024-01-27T00:57:05;5.10;99.90
4435;DHT22;46552;52.150;8.428;2024-01-27T00:59:34;5.10;99.90
4435;DHT22;46552;52.150;8.428;2024-01-27T01:02:02;5.00;99.90
4435;DHT22;46552;52.150;8.428;2024-01-27T01:04:30;5.00;99.90
4435;DHT22;46552;52.150;8.428;2024-01-27T01:06:58;5.00;99.90
4435;DHT22;46552;52.150;8.428;2024-01-27T01:09:25;4.90;99.90
4435;DHT22;46552;52.150;8.428;2024-01-27T01:11:52;5.00;99.90
4435;DHT22;46552;52.150;8.428;2024-01-27T01:14:20;4.90;99.90
4435;DHT22;46552;52.150;8.428;2024-01-27T01:16:49;4.90;99.90
4435;DHT22;46552;52.150;8.428;2024-01-27T01:19:16;4.90;99.90
4435;DHT22;46552;52.150;8.428;2024-01-27T01:21:44;4.90;99.90
4435;DHT22;46552;52.150;8.428;2024-01-27T01:24:11;4.90;99.90
4435;DHT22;46552;52.150;8.428;2024-01-27T01:26:38;4.90;99.90
4435;DHT22;46552;52.150;8.428;2024-01-27T01:29:05;4.90;99.90
4435;DHT22;46552;52.150;8.428;2024-01-27T01:31:32;4.80;99.90
4435;DHT22;46552;52.150;8.428;2024-01-27T01:34:01;4.80;99.90
4435;DHT22;46552;52.150;8.428;2024-01-27T01:36:29;4.80;99.90
4435;DHT22;46552;52.150;8.428;2024-01-27T01:38:56;4.80;99.90
4435;DHT22;46552;52.150;8.428;2024-01-27T01:41:23;4.80;99.90
4435;DHT22;46552;52.150;8.428;2024-01-27T01:43:50;4.70;99.90
4435;DHT22;46552;52.150;8.428;2024-01-27T01:46:18;4.70;99.90
4435;DHT22;46552;52.150;8.428;2024-01-27T01:48:45;4.60;99.90
4435;DHT22;46552;52.150;8.428;2024-01-27T01:51:14;4.60;99.90
4435;DHT22;46552;52.150;8.428;2024-01-27T01:53:44;4.60;99.90
4435;DHT22;46552;52.150;8.428;2024-01-27T01:56:13;4.60;99.90
4435;DHT22;46552;52.150;8.428;2024-01-27T01:58:41;4.60;99.90
4435;DHT22;46552;52.150;8.428;2024-01-27T02:01:08;4.60;99.90
4435;DHT22;46552;52.150;8.428;2024-01-27T02:03:35;4.60;99.90
4435;DHT22;46552;52.150;8.428;2024-01-27T02:06:03;4.60;99.90
4435;DHT22;46552;52.150;8.428;2024-01-27T02:08:32;4.60;99.90
4435;DHT22;46552;52.150;8.428;2024-01-27T02:10:59;4.60;99.90
4435;DHT22;46552;52.150;8.428;2024-01-27T02:13:28;4.60;99.90
4435;DHT22;46552;52.150;8.428;2024-01-27T02:15:55;4.60;99.90
4435;DHT22;46552;52.150;8.428;2024-01-27T02:18:23;4.60;99.90
4435;DHT22;46552;52.150;8.428;2024-01-27T02:20:50;4.60;99.90
4435;DHT22;46552;52.150;8.428;2024-01-27T02:23:17;4.60;99.90
4435;DHT22;46552;52.150;8.428;2024-01-27T02:25:47;4.70;99.90
4435;DHT22;46552;52.150;8.428;2024-01-27T02:28:16;4.70;99.90
4435;DHT22;46552;52.150;8.428;2024-01-27T02:30:43;4.70;99.90
4435;DHT22;46552;52.150;8.428;2024-01-27T02:33:10;4.70;99.90
4435;DHT22;46552;52.150;8.428;2024-01-27T02:35:38;4.70;99.90
4435;DHT22;46552;52.150;8.428;2024-01-27T02:38:05;4.70;99.90
4435;DHT22;46552;52.150;8.428;2024-01-27T02:40:33;4.60;99.90
4435;DHT22;46552;52.150;8.428;2024-01-27T02:43:01;4.60;99.90
4435;DHT22;46552;52.150;8.428;2024-01-27T02:45:29;4.70;99.90
4435;DHT22;46552;52.150;8.428;2024-01-27T02:47:56;4.60;99.90
4435;DHT22;46552;52.150;8.428;2024-01-27T02:50:23;4.60;99.90
4435;DHT22;46552;52.150;8.428;2024-01-27T02:52:51;4.60;99.90
4435;DHT22;46552;52.150;8.428;2024-01-27T02:55:18;4.60;99.90
4435;DHT22;46552;52.150;8.428;2024-01-27T02:57:45;4.60;99.90
4435;DHT22;46552;52.150;8.428;2024-01-27T03:00:15;4.60;99.90
4435;DHT22;46552;52.150;8.428;2024-01-27T03:02:43;4.60;99.90
4435;DHT22;46552;52.150;8.428;2024-01-27T03:05:10;4.70;99.90
4435;DHT22;46552;52.150;8.428;2024-01-27T03:07:39;4.70;99.90
4435;DHT22;46552;52.150;8.428;2024-01-27T03:10:07;4.60;99.90
4435;DHT22;46552;52.150;8.428;2024-01-27T03:12:35;4.60;99.90
4435;DHT22;46552;52.150;8.428;2024-01-27T03:15:02;4.60;99.90
4435;DHT22;46552;52.150;8.428;2024-01-27T03:17:31;4.60;99.90
4435;DHT22;46552;52.150;8.428;2024-01-27T03:19:58;4.50;99.90
4435;DHT22;46552;52.150;8.428;2024-01-27T03:22:26;4.40;99.90
4435;DHT22;46552;52.150;8.428;2024-01-27T03:24:53;4.40;99.90
4435;DHT22;46552;52.150;8.428;2024-01-27T03:27:20;4.40;99.90
4435;DHT22;46552;52.150;8.428;2024-01-27T03:29:48;4.40;99.90
4435;DHT22;46552;52.150;8.428;2024-01-27T03:32:15;4.30;99.90
4435;DHT22;46552;52.150;8.428;2024-01-27T03:34:45;4.20;99.90
4435;DHT22;46552;52.150;8.428;2024-01-27T03:37:12;4.10;99.90
4435;DHT22;46552;52.150;8.428;2024-01-27T03:39:43;4.10;99.90
4435;DHT22;46552;52.150;8.428;2024-01-27T03:42:11;4.00;99.90
4435;DHT22;46552;52.150;8.428;2024-01-27T03:44:38;3.90;99.90
4435;DHT22;46552;52.150;8.428;2024-01-27T03:47:05;3.90;99.90
4435;DHT22;46552;52.150;8.428;2024-01-27T03:49:32;3.80;99.90
4435;DHT22;46552;52.150;8.428;2024-01-27T03:52:01;3.80;99.90
4435;DHT22;46552;52.150;8.428;2024-01-27T03:54:28;3.80;99.90
4435;DHT22;46552;52.150;8.428;2024-01-27T03:56:55;3.80;99.90
4435;DHT22;46552;52.150;8.428;2024-01-27T03:59:23;3.80;99.90
4435;DHT22;46552;52.150;8.428;2024-01-27T04:01:50;3.80;99.90
4435;DHT22;46552;52.150;8.428;2024-01-27T04:04:17;3.80;99.90
4435;DHT22;46552;52.150;8.428;2024-01-27T04:06:46;3.70;99.90
4435;DHT22;46552;52.150;8.428;2024-01-27T04:09:15;3.80;99.90
4435;DHT22;46552;52.150;8.428;2024-01-27T04:11:42;3.70;99.90
4435;DHT22;46552;52.150;8.428;2024-01-27T04:14:09;3.70;99.90
4435;DHT22;46552;52.150;8.428;2024-01-27T04:16:36;3.80;99.90
4435;DHT22;46552;52.150;8.428;2024-01-27T04:19:04;3.80;99.90
4435;DHT22;46552;52.150;8.428;2024-01-27T04:21:32;3.80;99.90
4435;DHT22;46552;52.150;8.428;2024-01-27T04:23:59;3.70;99.90
4435;DHT22;46552;52.150;8.428;2024-01-27T04:26:28;3.70;99.90
4435;DHT22;46552;52.150;8.428;2024-01-27T04:28:55;3.70;99.90
4435;DHT22;46552;52.150;8.428;2024-01-27T04:31:22;3.70;99.90
4435;DHT22;46552;52.150;8.428;2024-01-27T04:33:49;3.70;99.90
4435;DHT22;46552;52.150;8.428;2024-01-27T04:36:25;3.70;99.90
4435;DHT22;46552;52.150;8.428;2024-01-27T04:38:53;3.70;99.90
4435;DHT22;46552;52.150;8.428;2024-01-27T04:41:21;3.70;99.90
4435;DHT22;46552;52.150;8.428;2024-01-27T04:43:49;3.70;99.90
4435;DHT22;46552;52.150;8.428;2024-01-27T04:46:18;3.70;99.90
4435;DHT22;46552;52.150;8.428;2024-01-27T04:48:46;3.70;99.90
4435;DHT22;46552;52.150;8.428;2024-01-27T04:51:13;3.60;99.90
4435;DHT22;46552;52.150;8.428;2024-01-27T04:53:40;3.70;99.90
4435;DHT22;46552;52.150;8.428;2024-01-27T04:56:07;3.70;99.90
4435;DHT22;46552;52.150;8.428;2024-01-27T04:58:35;3.70;99.90
4435;DHT22;46552;52.150;8.428;2024-01-27T05:01:04;3.70;99.90
4435;DHT22;46552;52.150;8.428;2024-01-27T05:03:32;3.70;99.90
4435;DHT22;46552;52.150;8.428;2024-01-27T05:05:59;3.70;99.90
4435;DHT22;46552;52.150;8.428;2024-01-27T05:08:27;3.70;99.90
4435;DHT22;46552;52.150;8.428;2024-01-27T05:10:55;3.70;99.90
4435;DHT22;46552;52.150;8.428;2024-01-27T05:13:22;3.60;99.90
4435;DHT22;46552;52.150;8.428;2024-01-27T05:15:49;3.60;99.90
4435;DHT22;46552;52.150;8.428;2024-01-27T05:18:18;3.60;99.90
4435;DHT22;46552;52.150;8.428;2024-01-27T05:20:46;3.60;99.90
4435;DHT22;46552;52.150;8.428;2024-01-27T05:23:13;3.50;99.90
4435;DHT22;46552;52.150;8.428;2024-01-27T05:25:42;3.50;99.90
4435;DHT22;46552;52.150;8.428;2024-01-27T05:28:10;3.50;99.90
4435;DHT22;46552;52.150;8.428;2024-01-27T05:30:38;3.50;99.90
4435;DHT22;46552;52.150;8.428;2024-01-27T05:33:05;3.50;99.90
4435;DHT22;46552;52.150;8.428;2024-01-27T05:35:34;3.50;99.90
4435;DHT22;46552;52.150;8.428;2024-01-27T05:38:02;3.50;99.90
4435;DHT22;46552;52.150;8.428;2024-01-27T05:40:29;3.50;99.90
4435;DHT22;46552;52.150;8.428;2024-01-27T05:43:00;3.50;99.90
4435;DHT22;46552;52.150;8.428;2024-01-27T05:45:28;3.50;99.90
4435;DHT22;46552;52.150;8.428;2024-01-27T05:47:57;3.50;99.90
4435;DHT22;46552;52.150;8.428;2024-01-27T05:50:24;3.50;99.90
4435;DHT22;46552;52.150;8.428;2024-01-27T05:52:52;3.40;99.90
4435;DHT22;46552;52.150;8.428;2024-01-27T05:55:19;3.40;99.90
4435;DHT22;46552;52.150;8.428;2024-01-27T05:57:47;3.40;99.90
4435;DHT22;46552;52.150;8.428;2024-01-27T06:00:14;3.40;99.90
4435;DHT22;46552;52.150;8.428;2024-01-27T06:02:41;3.40;99.90
4435;DHT22;46552;52.150;8.428;2024-01-27T06:05:09;3.40;99.90
4435;DHT22;46552;52.150;8.428;2024-01-27T06:07:37;3.40;99.90
4435;DHT22;46552;52.150;8.428;2024-01-27T06:10:09;3.40;99.90
4435;DHT22;46552;52.150;8.428;2024-01-27T06:12:37;3.40;99.90
4435;DHT22;46552;52.150;8.428;2024-01-27T06:15:06;3.40;99.90
4435;DHT22;46552;52.150;8.428;2024-01-27T06:17:34;3.40;99.90
4435;DHT22;46552;52.150;8.428;2024-01-27T06:20:02;3.30;99.90
4435;DHT22;46552;52.150;8.428;2024-01-27T06:22:29;3.30;99.90
4435;DHT22;46552;52.150;8.428;2024-01-27T06:24:57;3.30;99.90
4435;DHT22;46552;52.150;8.428;2024-01-27T06:27:25;3.30;99.90
4435;DHT22;46552;52.150;8.428;2024-01-27T06:29:52;3.20;99.90
4435;DHT22;46552;52.150;8.428;2024-01-27T06:32:20;3.20;99.90
4435;DHT22;46552;52.150;8.428;2024-01-27T06:34:47;3.20;99.90
4435;DHT22;46552;52.150;8.428;2024-01-27T06:37:14;3.20;99.90
4435;DHT22;46552;52.150;8.428;2024-01-27T06:39:41;3.20;99.90
4435;DHT22;46552;52.150;8.428;2024-01-27T06:42:10;3.20;99.90
4435;DHT22;46552;52.150;8.428;2024-01-27T06:44:39;3.20;99.90
4435;DHT22;46552;52.150;8.428;2024-01-27T06:47:06;3.20;99.90
4435;DHT22;46552;52.150;8.428;2024-01-27T06:49:34;3.20;99.90
4435;DHT22;46552;52.150;8.428;2024-01-27T06:52:03;3.10;99.90
4435;DHT22;46552;52.150;8.428;2024-01-27T06:54:31;3.20;99.90
4435;DHT22;46552;52.150;8.428;2024-01-27T06:56:59;3.10;99.90
4435;DHT22;46552;52.150;8.428;2024-01-27T06:59:26;3.10;99.90
4435;DHT22;46552;52.150;8.428;2024-01-27T07:01:54;3.10;99.90
4435;DHT22;46552;52.150;8.428;2024-01-27T07:04:23;3.00;99.90
4435;DHT22;46552;52.150;8.428;2024-01-27T07:06:50;3.00;99.90
4435;DHT22;46552;52.150;8.428;2024-01-27T07:09:17;3.00;99.90
4435;DHT22;46552;52.150;8.428;2024-01-27T07:11:44;3.00;99.90
4435;DHT22;46552;52.150;8.428;2024-01-27T07:14:12;3.00;99.90
4435;DHT22;46552;52.150;8.428;2024-01-27T07:16:39;3.00;99.90
4435;DHT22;46552;52.150;8.428;2024-01-27T07:19:09;3.00;99.90
4435;DHT22;46552;52.150;8.428;2024-01-27T07:21:37;3.00;99.90
4435;DHT22;46552;52.150;8.428;2024-01-27T07:24:04;3.00;99.90
4435;DHT22;46552;52.150;8.428;2024-01-27T07:26:31;2.90;99.90
4435;DHT22;46552;52.150;8.428;2024-01-27T07:29:00;3.00;99.90
4435;DHT22;46552;52.150;8.428;2024-01-27T07:31:27;3.00;99.90
4435;DHT22;46552;52.150;8.428;2024-01-27T07:33:55;3.00;99.90
4435;DHT22;46552;52.150;8.428;2024-01-27T07:36:23;3.10;99.90
4435;DHT22;46552;52.150;8.428;2024-01-27T07:38:51;3.10;99.90
4435;DHT22;46552;52.150;8.428;2024-01-27T07:41:19;3.10;99.90
4435;DHT22;46552;52.150;8.428;2024-01-27T07:43:46;3.20;99.90
4435;DHT22;46552;52.150;8.428;2024-01-27T07:46:13;3.40;99.90
4435;DHT22;46552;52.150;8.428;2024-01-27T07:48:41;3.80;99.90
4435;DHT22;46552;52.150;8.428;2024-01-27T07:51:09;4.50;99.90
4435;DHT22;46552;52.150;8.428;2024-01-27T07:53:37;5.00;99.90
4435;DHT22;46552;52.150;8.428;2024-01-27T07:56:05;5.50;99.90
4435;DHT22;46552;52.150;8.428;2024-01-27T07:58:32;6.10;99.90
4435;DHT22;46552;52.150;8.428;2024-01-27T08:00:59;6.80;99.90
4435;DHT22;46552;52.150;8.428;2024-01-27T08:03:26;7.20;99.90
4435;DHT22;46552;52.150;8.428;2024-01-27T08:05:54;7.50;99.90
4435;DHT22;46552;52.150;8.428;2024-01-27T08:08:21;7.90;99.90
4435;DHT22;46552;52.150;8.428;2024-01-27T08:10:50;8.20;99.90
4435;DHT22;46552;52.150;8.428;2024-01-27T08:13:17;8.50;99.90
4435;DHT22;46552;52.150;8.428;2024-01-27T08:15:45;8.30;99.90
4435;DHT22;46552;52.150;8.428;2024-01-27T08:18:12;8.00;99.90
4435;DHT22;46552;52.150;8.428;2024-01-27T08:20:39;7.70;99.90
4435;DHT22;46552;52.150;8.428;2024-01-27T08:23:06;7.20;99.90
4435;DHT22;46552;52.150;8.428;2024-01-27T08:25:34;6.90;99.90
4435;DHT22;46552;52.150;8.428;2024-01-27T08:28:04;6.90;99.90
4435;DHT22;46552;52.150;8.428;2024-01-27T08:30:31;7.40;99.90
4435;DHT22;46552;52.150;8.428;2024-01-27T08:32:59;8.10;99.90
4435;DHT22;46552;52.150;8.428;2024-01-27T08:35:26;9.10;99.90
4435;DHT22;46552;52.150;8.428;2024-01-27T08:37:53;9.80;99.90
4435;DHT22;46552;52.150;8.428;2024-01-27T08:40:20;10.40;99.90
4435;DHT22;46552;52.150;8.428;2024-01-27T08:42:48;11.00;99.90
4435;DHT22;46552;52.150;8.428;2024-01-27T08:45:16;11.80;99.90
4435;DHT22;46552;52.150;8.428;2024-01-27T08:47:44;12.70;99.90
4435;DHT22;46552;52.150;8.428;2024-01-27T08:50:11;13.00;99.70
4435;DHT22;46552;52.150;8.428;2024-01-27T08:52:39;13.30;99.90
4435;DHT22;46552;52.150;8.428;2024-01-27T08:55:06;13.80;98.70
4435;DHT22;46552;52.150;8.428;2024-01-27T08:57:34;14.00;98.50
4435;DHT22;46552;52.150;8.428;2024-01-27T09:00:02;14.70;97.80
4435;DHT22;46552;52.150;8.428;2024-01-27T09:02:35;15.10;97.00
4435;DHT22;46552;52.150;8.428;2024-01-27T09:05:02;15.70;95.40
4435;DHT22;46552;52.150;8.428;2024-01-27T09:07:29;16.10;95.10
4435;DHT22;46552;52.150;8.428;2024-01-27T09:09:57;16.40;94.40
4435;DHT22;46552;52.150;8.428;2024-01-27T09:12:23;16.80;93.70
4435;DHT22;46552;52.150;8.428;2024-01-27T09:14:50;17.20;92.80
4435;DHT22;46552;52.150;8.428;2024-01-27T09:17:17;17.40;91.90
4435;DHT22;46552;52.150;8.428;2024-01-27T09:19:47;17.10;90.80
4435;DHT22;46552;52.150;8.428;2024-01-27T09:22:14;17.10;90.00
4435;DHT22;46552;52.150;8.428;2024-01-27T09:24:41;17.10;90.60
4435;DHT22;46552;52.150;8.428;2024-01-27T09:27:08;17.60;90.60
4435;DHT22;46552;52.150;8.428;2024-01-27T09:29:35;17.90;89.60
4435;DHT22;46552;52.150;8.428;2024-01-27T09:32:04;18.30;86.90
4435;DHT22;46552;52.150;8.428;2024-01-27T09:34:32;18.00;86.80
4435;DHT22;46552;52.150;8.428;2024-01-27T09:37:01;18.30;85.40
4435;DHT22;46552;52.150;8.428;2024-01-27T09:39:28;18.80;84.10
4435;DHT22;46552;52.150;8.428;2024-01-27T09:41:56;19.00;83.30
4435;DHT22;46552;52.150;8.428;2024-01-27T09:44:24;19.00;81.20
4435;DHT22;46552;52.150;8.428;2024-01-27T09:46:53;19.40;80.00
4435;DHT22;46552;52.150;8.428;2024-01-27T09:49:22;19.30;79.80
4435;DHT22;46552;52.150;8.428;2024-01-27T09:51:50;19.60;78.50
4435;DHT22;46552;52.150;8.428;2024-01-27T09:54:19;19.90;77.60
4435;DHT22;46552;52.150;8.428;2024-01-27T09:56:46;20.40;76.20
4435;DHT22;46552;52.150;8.428;2024-01-27T09:59:14;20.80;75.60
4435;DHT22;46552;52.150;8.428;2024-01-27T10:01:44;20.80;73.40
4435;DHT22;46552;52.150;8.428;2024-01-27T10:04:12;21.00;73.00
4435;DHT22;46552;52.150;8.428;2024-01-27T10:06:40;21.30;70.50
4435;DHT22;46552;52.150;8.428;2024-01-27T10:09:08;21.10;71.00
4435;DHT22;46552;52.150;8.428;2024-01-27T10:11:39;20.90;70.30
4435;DHT22;46552;52.150;8.428;2024-01-27T10:14:10;21.10;68.00
4435;DHT22;46552;52.150;8.428;2024-01-27T10:16:41;21.00;69.60
4435;DHT22;46552;52.150;8.428;2024-01-27T10:19:12;20.80;67.50
4435;DHT22;46552;52.150;8.428;2024-01-27T10:21:43;21.50;67.20
4435;DHT22;46552;52.150;8.428;2024-01-27T10:24:11;21.60;66.70
4435;DHT22;46552;52.150;8.428;2024-01-27T10:26:40;21.60;66.40
4435;DHT22;46552;52.150;8.428;2024-01-27T10:29:07;21.80;66.50
4435;DHT22;46552;52.150;8.428;2024-01-27T10:31:36;21.80;65.50
4435;DHT22;46552;52.150;8.428;2024-01-27T10:34:05;21.50;64.70
4435;DHT22;46552;52.150;8.428;2024-01-27T10:36:40;21.40;65.30
4435;DHT22;46552;52.150;8.428;2024-01-27T10:39:15;21.70;63.20
4435;DHT22;46552;52.150;8.428;2024-01-27T10:41:45;21.90;62.30
4435;DHT22;46552;52.150;8.428;2024-01-27T10:44:15;22.10;62.50
4435;DHT22;46552;52.150;8.428;2024-01-27T10:46:43;21.80;63.70
4435;DHT22;46552;52.150;8.428;2024-01-27T10:49:13;22.20;62.30
4435;DHT22;46552;52.150;8.428;2024-01-27T10:51:43;22.40;61.50
4435;DHT22;46552;52.150;8.428;2024-01-27T10:54:14;21.90;61.10
4435;DHT22;46552;52.150;8.428;2024-01-27T10:56:44;22.20;61.70
4435;DHT22;46552;52.150;8.428;2024-01-27T10:59:14;21.90;61.40
4435;DHT22;46552;52.150;8.428;2024-01-27T11:01:43;22.40;60.80
4435;DHT22;46552;52.150;8.428;2024-01-27T11:04:11;22.80;59.80
4435;DHT22;46552;52.150;8.428;2024-01-27T11:06:42;22.80;59.80
4435;DHT22;46552;52.150;8.428;2024-01-27T11:09:10;22.90;59.50
4435;DHT22;46552;52.150;8.428;2024-01-27T11:11:39;23.10;59.00
4435;DHT22;46552;52.150;8.428;2024-01-27T11:14:09;22.90;59.00
4435;DHT22;46552;52.150;8.428;2024-01-27T11:16:37;23.50;58.60
4435;DHT22;46552;52.150;8.428;2024-01-27T11:19:09;24.10;57.60
4435;DHT22;46552;52.150;8.428;2024-01-27T11:21:37;24.00;57.70
4435;DHT22;46552;52.150;8.428;2024-01-27T11:24:13;24.10;57.30
4435;DHT22;46552;52.150;8.428;2024-01-27T11:26:40;24.30;56.00
4435;DHT22;46552;52.150;8.428;2024-01-27T11:29:10;24.40;56.70
4435;DHT22;46552;52.150;8.428;2024-01-27T11:31:45;24.40;55.40
4435;DHT22;46552;52.150;8.428;2024-01-27T11:34:12;24.10;56.30
4435;DHT22;46552;52.150;8.428;2024-01-27T11:36:43;24.30;55.70
4435;DHT22;46552;52.150;8.428;2024-01-27T11:39:23;24.80;55.30
4435;DHT22;46552;52.150;8.428;2024-01-27T11:41:51;24.80;53.70
4435;DHT22;46552;52.150;8.428;2024-01-27T11:44:21;24.80;54.80
4435;DHT22;46552;52.150;8.428;2024-01-27T11:46:48;24.30;54.20
4435;DHT22;46552;52.150;8.428;2024-01-27T11:49:15;24.40;54.40
4435;DHT22;46552;52.150;8.428;2024-01-27T11:51:43;24.30;54.50
4435;DHT22;46552;52.150;8.428;2024-01-27T11:54:11;24.30;54.20
4435;DHT22;46552;52.150;8.428;2024-01-27T11:56:38;24.50;54.20
4435;DHT22;46552;52.150;8.428;2024-01-27T11:59:06;24.10;54.40
4435;DHT22;46552;52.150;8.428;2024-01-27T12:01:35;23.70;54.90
4435;DHT22;46552;52.150;8.428;2024-01-27T12:04:03;23.20;55.80
4435;DHT22;46552;52.150;8.428;2024-01-27T12:06:31;22.90;56.40
4435;DHT22;46552;52.150;8.428;2024-01-27T12:08:58;22.30;57.10
4435;DHT22;46552;52.150;8.428;2024-01-27T12:11:25;21.30;58.30
4435;DHT22;46552;52.150;8.428;2024-01-27T12:13:53;20.30;59.40
4435;DHT22;46552;52.150;8.428;2024-01-27T12:16:22;19.50;60.50
4435;DHT22;46552;52.150;8.428;2024-01-27T12:18:53;18.60;61.60
4435;DHT22;46552;52.150;8.428;2024-01-27T12:21:21;18.20;63.40
4435;DHT22;46552;52.150;8.428;2024-01-27T12:23:52;17.70;64.60
4435;DHT22;46552;52.150;8.428;2024-01-27T12:26:20;17.20;65.40
4435;DHT22;46552;52.150;8.428;2024-01-27T12:28:48;16.70;66.80
4435;DHT22;46552;52.150;8.428;2024-01-27T12:31:16;16.50;67.90
4435;DHT22;46552;52.150;8.428;2024-01-27T12:33:50;16.20;68.00
4435;DHT22;46552;52.150;8.428;2024-01-27T12:36:20;16.10;68.50
4435;DHT22;46552;52.150;8.428;2024-01-27T12:38:53;16.10;68.80
4435;DHT22;46552;52.150;8.428;2024-01-27T12:41:21;15.80;69.20
4435;DHT22;46552;52.150;8.428;2024-01-27T12:43:48;15.60;69.30
4435;DHT22;46552;52.150;8.428;2024-01-27T12:46:15;15.50;69.60
4435;DHT22;46552;52.150;8.428;2024-01-27T12:48:43;15.40;70.30
4435;DHT22;46552;52.150;8.428;2024-01-27T12:51:10;15.50;70.70
4435;DHT22;46552;52.150;8.428;2024-01-27T12:53:41;15.30;70.70
4435;DHT22;46552;52.150;8.428;2024-01-27T12:56:10;15.20;71.30
4435;DHT22;46552;52.150;8.428;2024-01-27T12:58:38;15.10;71.70
4435;DHT22;46552;52.150;8.428;2024-01-27T13:01:06;15.10;71.80
4435;DHT22;46552;52.150;8.428;2024-01-27T13:03:33;15.00;71.40
4435;DHT22;46552;52.150;8.428;2024-01-27T13:06:01;14.80;71.40
4435;DHT22;46552;52.150;8.428;2024-01-27T13:08:29;14.60;71.80
4435;DHT22;46552;52.150;8.428;2024-01-27T13:10:57;14.30;72.70
4435;DHT22;46552;52.150;8.428;2024-01-27T13:13:25;14.40;73.30
4435;DHT22;46552;52.150;8.428;2024-01-27T13:15:53;14.40;73.50
4435;DHT22;46552;52.150;8.428;2024-01-27T13:18:20;14.40;73.50
4435;DHT22;46552;52.150;8.428;2024-01-27T13:20:47;14.50;74.40
4435;DHT22;46552;52.150;8.428;2024-01-27T13:23:15;14.40;74.50
4435;DHT22;46552;52.150;8.428;2024-01-27T13:25:42;14.30;74.00
4435;DHT22;46552;52.150;8.428;2024-01-27T13:28:11;14.20;74.70
4435;DHT22;46552;52.150;8.428;2024-01-27T13:30:39;14.10;74.90
4435;DHT22;46552;52.150;8.428;2024-01-27T13:33:07;14.30;74.40
4435;DHT22;46552;52.150;8.428;2024-01-27T13:35:35;14.30;74.80
4435;DHT22;46552;52.150;8.428;2024-01-27T13:38:02;14.20;75.30
4435;DHT22;46552;52.150;8.428;2024-01-27T13:40:30;14.10;75.80
4435;DHT22;46552;52.150;8.428;2024-01-27T13:42:57;14.00;75.90
4435;DHT22;46552;52.150;8.428;2024-01-27T13:45:27;14.00;76.20
4435;DHT22;46552;52.150;8.428;2024-01-27T13:47:54;14.00;76.80
4435;DHT22;46552;52.150;8.428;2024-01-27T13:50:21;13.90;76.40
4435;DHT22;46552;52.150;8.428;2024-01-27T13:52:49;13.90;76.70
4435;DHT22;46552;52.150;8.428;2024-01-27T13:55:17;13.90;77.00
4435;DHT22;46552;52.150;8.428;2024-01-27T13:57:44;13.80;77.10
4435;DHT22;46552;52.150;8.428;2024-01-27T14:00:13;13.90;77.50
4435;DHT22;46552;52.150;8.428;2024-01-27T14:02:41;13.90;77.70
4435;DHT22;46552;52.150;8.428;2024-01-27T14:05:08;13.90;78.50
4435;DHT22;46552;52.150;8.428;2024-01-27T14:07:36;13.80;78.40
4435;DHT22;46552;52.150;8.428;2024-01-27T14:10:04;13.70;78.40
4435;DHT22;46552;52.150;8.428;2024-01-27T14:12:32;13.60;78.80
4435;DHT22;46552;52.150;8.428;2024-01-27T14:15:03;13.40;79.30
4435;DHT22;46552;52.150;8.428;2024-01-27T14:17:32;13.40;79.30
4435;DHT22;46552;52.150;8.428;2024-01-27T14:20:01;13.30;79.30
4435;DHT22;46552;52.150;8.428;2024-01-27T14:22:29;13.20;79.40
4435;DHT22;46552;52.150;8.428;2024-01-27T14:24:56;13.20;79.60
4435;DHT22;46552;52.150;8.428;2024-01-27T14:27:23;13.20;79.90
4435;DHT22;46552;52.150;8.428;2024-01-27T14:29:53;13.20;79.60
4435;DHT22;46552;52.150;8.428;2024-01-27T14:32:21;13.00;79.90
4435;DHT22;46552;52.150;8.428;2024-01-27T14:34:49;12.90;80.40
4435;DHT22;46552;52.150;8.428;2024-01-27T14:37:18;12.80;80.40
4435;DHT22;46552;52.150;8.428;2024-01-27T14:39:46;12.70;80.50
4435;DHT22;46552;52.150;8.428;2024-01-27T14:42:14;12.80;80.70
4435;DHT22;46552;52.150;8.428;2024-01-27T14:44:43;12.80;81.10
4435;DHT22;46552;52.150;8.428;2024-01-27T14:47:11;12.70;80.80
4435;DHT22;46552;52.150;8.428;2024-01-27T14:49:38;12.70;80.70
4435;DHT22;46552;52.150;8.428;2024-01-27T14:52:06;12.60;81.20
4435;DHT22;46552;52.150;8.428;2024-01-27T14:54:36;12.50;81.50
4435;DHT22;46552;52.150;8.428;2024-01-27T14:57:04;12.40;81.90
4435;DHT22;46552;52.150;8.428;2024-01-27T14:59:32;12.40;82.00
4435;DHT22;46552;52.150;8.428;2024-01-27T15:01:59;12.40;82.40
4435;DHT22;46552;52.150;8.428;2024-01-27T15:04:26;12.40;82.40
4435;DHT22;46552;52.150;8.428;2024-01-27T15:06:53;12.20;82.60
4435;DHT22;46552;52.150;8.428;2024-01-27T15:09:22;12.10;83.20
4435;DHT22;46552;52.150;8.428;2024-01-27T15:11:52;11.90;83.60
4435;DHT22;46552;52.150;8.428;2024-01-27T15:14:19;11.70;84.10
4435;DHT22;46552;52.150;8.428;2024-01-27T15:16:47;11.50;84.80
4435;DHT22;46552;52.150;8.428;2024-01-27T15:19:14;11.40;85.50
4435;DHT22;46552;52.150;8.428;2024-01-27T15:21:42;11.20;85.50
4435;DHT22;46552;52.150;8.428;2024-01-27T15:24:10;11.20;85.70
4435;DHT22;46552;52.150;8.428;2024-01-27T15:26:37;11.00;86.10
4435;DHT22;46552;52.150;8.428;2024-01-27T15:29:06;10.90;86.70
4435;DHT22;46552;52.150;8.428;2024-01-27T15:31:33;10.80;87.20
4435;DHT22;46552;52.150;8.428;2024-01-27T15:34:01;10.60;87.50
4435;DHT22;46552;52.150;8.428;2024-01-27T15:36:28;10.50;88.00
4435;DHT22;46552;52.150;8.428;2024-01-27T15:38:56;10.40;88.20
4435;DHT22;46552;52.150;8.428;2024-01-27T15:41:23;10.40;88.90
4435;DHT22;46552;52.150;8.428;2024-01-27T15:43:50;10.30;89.40
4435;DHT22;46552;52.150;8.428;2024-01-27T15:46:19;10.20;89.70
4435;DHT22;46552;52.150;8.428;2024-01-27T15:48:46;10.20;90.00
4435;DHT22;46552;52.150;8.428;2024-01-27T15:51:13;10.10;90.20
4435;DHT22;46552;52.150;8.428;2024-01-27T15:53:41;10.00;90.60
4435;DHT22;46552;52.150;8.428;2024-01-27T15:56:09;9.80;91.30
4435;DHT22;46552;52.150;8.428;2024-01-27T15:58:37;9.80;91.60